Time;durP1;ratioP1;P1;durP2;ratioP2;P2;SDS_P1;SDS_P2;PMS_P1;PMS_P2;Temp;Humidity;BMP_temperature;BMP_pressure;BME280_temperature;BME280_humidity;BME280_pressure;Samples;Min_cycle;Max_cycle;Signal;HPM_P1;HPM_P2
2022/12/29 00:02:12;;;;;;;18.70;2.80;;;9.60;99.90;;;;;;5033627;28;20217;-61
2022/12/29 00:04:37;;;;;;;25.37;3.43;;;9.70;99.90;;;;;;5033778;28;20166;-61
2022/12/29 00:07:04;;;;;;;16.47;3.03;;;9.70;99.90;;;;;;5033718;28;20181;-61
2022/12/29 00:09:30;;;;;;;15.93;2.60;;;9.70;99.90;;;;;;5033848;28;20166;-61
2022/12/29 00:11:56;;;;;;;24.37;2.97;;;9.80;99.90;;;;;;5033561;28;20273;-61
2022/12/29 00:17:06;;;;;;;23.33;3.07;;;9.70;99.90;;;;;;5033487;28;20181;-63
2022/12/29 00:36:12;;;;;;;12.17;1.87;;;9.60;99.90;;;;;;5021315;28;20252;-62
2022/12/29 00:44:12;;;;;;;12.60;2.87;;;9.60;99.90;;;;;;5013204;28;20221;-62
2022/12/29 00:46:42;;;;;;;16.93;2.87;;;9.70;99.90;;;;;;5024512;28;20597;-62
2022/12/29 00:51:55;;;;;;;25.73;3.30;;;9.80;99.90;;;;;;5032983;28;20189;-62
2022/12/29 00:54:21;;;;;;;23.17;3.20;;;9.80;99.90;;;;;;5032520;28;20188;-61
2022/12/29 00:56:48;;;;;;;24.73;4.03;;;10.00;99.90;;;;;;5032687;28;20174;-62
2022/12/29 00:59:14;;;;;;;20.07;3.80;;;9.80;99.90;;;;;;5032974;28;20177;-62
2022/12/29 01:01:40;;;;;;;10.67;2.53;;;9.70;99.90;;;;;;5031978;28;20272;-61
2022/12/29 01:04:06;;;;;;;14.27;2.33;;;9.80;99.90;;;;;;5032707;28;20217;-62
2022/12/29 01:06:33;;;;;;;31.73;3.33;;;9.80;99.90;;;;;;5032826;28;20180;-61
2022/12/29 01:11:43;;;;;;;16.50;2.73;;;9.80;99.90;;;;;;5032909;28;20216;-61
2022/12/29 01:14:09;;;;;;;19.93;3.57;;;9.60;99.90;;;;;;5032465;28;20181;-62
2022/12/29 01:16:36;;;;;;;22.23;2.70;;;9.70;99.90;;;;;;5032456;28;20182;-62
2022/12/29 01:19:02;;;;;;;26.07;3.70;;;9.70;99.90;;;;;;5032414;28;20190;-62
2022/12/29 01:21:27;;;;;;;28.30;3.90;;;9.80;99.90;;;;;;5032296;28;20174;-62
2022/12/29 01:23:53;;;;;;;19.03;2.27;;;9.70;99.90;;;;;;5032144;28;20751;-62
2022/12/29 01:26:19;;;;;;;24.43;3.77;;;9.80;99.90;;;;;;5032349;28;20178;-62
2022/12/29 01:28:44;;;;;;;28.23;3.63;;;9.80;99.90;;;;;;5032239;28;20182;-63
2022/12/29 01:31:12;;;;;;;17.30;2.57;;;9.80;99.90;;;;;;5032013;28;20178;-62
2022/12/29 01:33:38;;;;;;;22.07;3.67;;;9.80;99.90;;;;;;5030039;28;20166;-60
2022/12/29 01:36:06;;;;;;;16.97;2.40;;;9.50;99.90;;;;;;5026986;28;20529;-58
2022/12/29 01:38:32;;;;;;;11.30;2.47;;;9.70;99.90;;;;;;5025139;28;20223;-60
2022/12/29 01:40:58;;;;;;;20.10;3.43;;;9.80;99.90;;;;;;5028466;28;20178;-60
2022/12/29 01:43:45;;;;;;;18.67;2.20;;;9.80;99.90;;;;;;5023379;28;20212;-61
2022/12/29 01:46:26;;;;;;;19.30;2.00;;;9.90;99.90;;;;;;5031272;28;20177;-61
2022/12/29 01:49:13;;;;;;;22.70;3.00;;;10.00;99.90;;;;;;5031796;28;20178;-61
2022/12/29 01:51:47;;;;;;;15.03;1.73;;;10.10;99.90;;;;;;5031680;28;20174;-61
2022/12/29 01:54:37;;;;;;;18.17;1.90;;;10.10;99.90;;;;;;5031396;28;20177;-61
2022/12/29 01:57:08;;;;;;;15.53;2.60;;;10.10;99.90;;;;;;5014824;28;20186;-61
2022/12/29 01:59:42;;;;;;;23.87;3.13;;;10.10;99.90;;;;;;5031528;28;20232;-62
2022/12/29 02:02:08;;;;;;;15.50;2.33;;;10.10;99.90;;;;;;5031417;28;20220;-62
2022/12/29 02:04:39;;;;;;;9.33;2.17;;;10.20;99.90;;;;;;5031574;28;20656;-61
2022/12/29 02:07:10;;;;;;;15.87;1.90;;;10.20;99.90;;;;;;5031501;28;20672;-61
2022/12/29 02:09:36;;;;;;;19.63;2.33;;;10.20;99.90;;;;;;5031571;28;20176;-62
2022/12/29 02:12:02;;;;;;;16.73;2.40;;;10.30;99.90;;;;;;5030959;28;20170;-61
2022/12/29 02:14:29;;;;;;;9.97;1.50;;;10.30;99.90;;;;;;5031362;28;20178;-61
2022/12/29 02:17:03;;;;;;;5.50;1.43;;;10.30;99.90;;;;;;5031191;28;20201;-61
2022/12/29 02:19:52;;;;;;;15.53;2.80;;;10.40;99.90;;;;;;5030108;28;20667;-61
2022/12/29 02:22:21;;;;;;;17.73;2.17;;;10.30;99.90;;;;;;5025482;28;20213;-61
2022/12/29 02:24:46;;;;;;;13.13;2.57;;;10.30;99.90;;;;;;5031357;28;20182;-61
2022/12/29 02:27:43;;;;;;;14.80;2.37;;;10.30;99.90;;;;;;5030911;28;20181;-60
2022/12/29 02:30:26;;;;;;;13.03;1.60;;;10.20;99.90;;;;;;5020838;28;20568;-61
2022/12/29 02:33:00;;;;;;;11.40;2.43;;;10.10;99.90;;;;;;5019857;28;20533;-61
2022/12/29 02:35:30;;;;;;;14.73;3.10;;;9.80;99.90;;;;;;5013626;28;20890;-60
2022/12/29 02:38:27;;;;;;;24.50;2.47;;;9.90;99.90;;;;;;5024116;28;20222;-61
2022/12/29 02:41:04;;;;;;;17.10;2.50;;;9.60;99.90;;;;;;5019541;28;20192;-64
2022/12/29 02:43:56;;;;;;;26.67;2.90;;;9.30;99.90;;;;;;5030857;28;20213;-61
2022/12/29 02:46:40;;;;;;;9.70;1.73;;;9.30;99.90;;;;;;5016392;28;20174;-61
2022/12/29 02:49:32;;;;;;;13.13;2.33;;;9.30;99.90;;;;;;5030614;28;20193;-62
2022/12/29 02:52:00;;;;;;;5.17;1.17;;;9.20;99.90;;;;;;5008456;28;20186;-63
2022/12/29 02:54:42;;;;;;;1.70;0.70;;;9.20;99.90;;;;;;5023207;28;20189;-63
2022/12/29 02:57:20;;;;;;;5.63;1.50;;;9.10;99.90;;;;;;5030542;28;20177;-62
2022/12/29 02:59:56;;;;;;;11.80;1.63;;;9.10;99.90;;;;;;5030684;28;20185;-58
2022/12/29 03:02:25;;;;;;;16.77;2.60;;;9.10;99.90;;;;;;5029142;28;20241;-62
2022/12/29 03:05:21;;;;;;;16.77;2.40;;;9.00;99.90;;;;;;5030071;28;20652;-61
2022/12/29 03:07:58;;;;;;;5.93;1.40;;;9.00;99.90;;;;;;5030386;28;20624;-62
2022/12/29 03:10:40;;;;;;;18.10;2.27;;;9.00;99.90;;;;;;5028511;28;20331;-61
2022/12/29 03:16:20;;;;;;;16.67;2.50;;;9.00;99.90;;;;;;5028329;28;20722;-61
2022/12/29 03:19:04;;;;;;;20.80;2.40;;;8.90;99.90;;;;;;5030206;28;20182;-61
2022/12/29 03:24:32;;;;;;;26.93;2.27;;;8.90;99.90;;;;;;5022393;28;20252;-61
2022/12/29 03:27:02;;;;;;;25.53;3.07;;;8.90;99.90;;;;;;5033361;28;20169;-60
2022/12/29 03:29:31;;;;;;;28.37;2.43;;;8.90;99.90;;;;;;5034562;28;20186;-62
2022/12/29 03:31:59;;;;;;;24.23;3.13;;;8.90;99.90;;;;;;5034531;28;20218;-62
2022/12/29 03:34:26;;;;;;;31.23;3.27;;;8.90;99.90;;;;;;5034503;28;20162;-61
2022/12/29 03:36:58;;;;;;;30.93;3.30;;;8.90;99.90;;;;;;5034485;28;20655;-62
2022/12/29 03:39:25;;;;;;;31.80;3.57;;;9.00;99.90;;;;;;5034332;28;20625;-61
2022/12/29 03:41:59;;;;;;;26.10;2.83;;;8.90;99.90;;;;;;5034644;28;20528;-60
2022/12/29 03:44:36;;;;;;;22.03;3.33;;;9.30;99.90;;;;;;5033560;28;20247;-60
2022/12/29 03:47:02;;;;;;;28.57;3.20;;;8.90;99.90;;;;;;5027768;28;20656;-60
2022/12/29 03:49:28;;;;;;;21.47;2.40;;;8.90;99.90;;;;;;5034190;28;20193;-61
2022/12/29 03:51:54;;;;;;;18.70;2.40;;;8.90;99.90;;;;;;5034252;28;20209;-62
2022/12/29 03:54:19;;;;;;;29.80;2.40;;;8.90;99.90;;;;;;5033742;28;20660;-61
2022/12/29 03:56:45;;;;;;;19.73;2.03;;;8.80;99.90;;;;;;5032426;28;20595;-62
2022/12/29 03:59:10;;;;;;;23.37;3.23;;;8.80;99.90;;;;;;5033861;28;20174;-61
2022/12/29 04:01:36;;;;;;;26.17;2.57;;;8.80;99.90;;;;;;5033080;28;20271;-61
2022/12/29 04:04:02;;;;;;;14.90;1.93;;;8.80;99.90;;;;;;5014945;28;20217;-61
2022/12/29 04:06:27;;;;;;;18.10;2.33;;;8.80;99.90;;;;;;5031767;28;20637;-63
2022/12/29 04:08:53;;;;;;;16.33;2.30;;;8.80;99.90;;;;;;5033770;28;20641;-61
2022/12/29 04:11:19;;;;;;;19.30;2.60;;;8.80;99.90;;;;;;5020960;28;20741;-61
2022/12/29 04:13:44;;;;;;;17.07;2.30;;;8.80;99.90;;;;;;5016244;28;20186;-61
2022/12/29 04:16:10;;;;;;;17.37;2.40;;;8.80;99.90;;;;;;5033479;28;20162;-60
2022/12/29 04:18:36;;;;;;;18.70;2.40;;;;;;;;;;5033249;28;20182;-60
2022/12/29 04:21:02;;;;;;;11.57;1.83;;;8.70;99.90;;;;;;5033711;28;20644;-60
2022/12/29 04:23:29;;;;;;;14.90;2.27;;;8.70;99.90;;;;;;5033090;28;20296;-60
2022/12/29 04:25:55;;;;;;;13.23;2.23;;;8.60;99.90;;;;;;5033495;28;20174;-60
2022/12/29 04:28:21;;;;;;;16.47;2.70;;;8.70;99.90;;;;;;5033412;28;20173;-60
2022/12/29 04:30:47;;;;;;;13.97;2.07;;;8.60;99.90;;;;;;5033207;28;20181;-60
2022/12/29 04:33:13;;;;;;;18.37;2.50;;;8.60;99.90;;;;;;5032636;28;20177;-60
2022/12/29 04:35:39;;;;;;;18.33;2.43;;;8.50;99.90;;;;;;5032183;28;20264;-60
2022/12/29 04:38:04;;;;;;;13.43;1.77;;;8.50;99.90;;;;;;5033135;28;20667;-60
2022/12/29 04:40:30;;;;;;;11.07;2.10;;;8.50;99.90;;;;;;5033062;28;20170;-60
2022/12/29 04:42:56;;;;;;;23.57;1.90;;;8.30;99.90;;;;;;5033110;28;20210;-59
2022/12/29 04:45:21;;;;;;;12.70;1.90;;;8.30;99.90;;;;;;5029814;28;20177;-59
2022/12/29 04:47:47;;;;;;;18.63;2.27;;;8.50;99.90;;;;;;5011989;28;20591;-61
2022/12/29 04:50:13;;;;;;;8.17;1.30;;;8.50;99.90;;;;;;5020796;28;20178;-61
2022/12/29 04:52:38;;;;;;;15.00;2.40;;;8.50;99.90;;;;;;5032717;28;20636;-60
2022/12/29 04:55:05;;;;;;;13.77;1.80;;;8.60;99.90;;;;;;5032448;28;20261;-60
2022/12/29 04:57:31;;;;;;;9.13;1.60;;;8.50;99.90;;;;;;5022258;28;20179;-60
2022/12/29 04:59:56;;;;;;;11.53;2.03;;;8.50;99.90;;;;;;5024444;28;20541;-60
2022/12/29 05:02:22;;;;;;;16.80;2.23;;;8.50;99.90;;;;;;5030622;28;20459;-60
2022/12/29 05:04:48;;;;;;;14.23;2.20;;;8.50;99.90;;;;;;5031557;28;20236;-61
2022/12/29 05:07:13;;;;;;;13.17;1.87;;;8.50;99.90;;;;;;5025980;28;20202;-61
2022/12/29 05:09:39;;;;;;;14.50;2.70;;;8.50;99.90;;;;;;5027048;28;20185;-60
2022/12/29 05:12:06;;;;;;;16.90;1.90;;;8.50;99.90;;;;;;5032082;28;20162;-60
2022/12/29 05:14:32;;;;;;;17.63;2.47;;;8.50;99.90;;;;;;5032657;28;20185;-60
2022/12/29 05:16:57;;;;;;;17.67;2.20;;;8.50;99.90;;;;;;5032474;28;20182;-60
2022/12/29 05:19:23;;;;;;;20.83;2.23;;;8.40;99.90;;;;;;5032144;28;20182;-59
2022/12/29 05:21:48;;;;;;;18.93;2.90;;;8.60;99.90;;;;;;5032431;28;20197;-60
2022/12/29 05:24:15;;;;;;;14.80;2.03;;;8.50;99.90;;;;;;5031489;28;20213;-60
2022/12/29 05:26:41;;;;;;;15.73;2.00;;;8.50;99.90;;;;;;5032301;28;20209;-61
2022/12/29 05:29:06;;;;;;;10.87;1.60;;;8.50;99.90;;;;;;5032347;28;20174;-61
2022/12/29 05:31:33;;;;;;;18.23;2.33;;;8.50;99.90;;;;;;5032140;28;20178;-61
2022/12/29 05:33:58;;;;;;;15.23;2.00;;;8.50;99.90;;;;;;5031081;28;20212;-61
2022/12/29 05:36:24;;;;;;;12.57;1.90;;;8.40;99.90;;;;;;5032426;28;20209;-61
2022/12/29 05:38:50;;;;;;;12.73;1.97;;;8.40;99.90;;;;;;5032172;28;20170;-61
2022/12/29 05:41:15;;;;;;;16.97;1.70;;;8.30;99.90;;;;;;5032063;28;20185;-60
2022/12/29 05:43:41;;;;;;;8.43;1.40;;;8.40;99.90;;;;;;5031922;28;20289;-61
2022/12/29 05:46:07;;;;;;;17.87;2.40;;;8.40;99.90;;;;;;5031980;28;20182;-61
2022/12/29 05:48:32;;;;;;;23.30;2.57;;;8.40;99.90;;;;;;5031979;28;20178;-60
2022/12/29 05:50:58;;;;;;;23.63;2.27;;;8.40;99.90;;;;;;5031893;28;20201;-59
2022/12/29 05:53:23;;;;;;;15.93;1.93;;;8.40;99.90;;;;;;5031791;28;20173;-59
2022/12/29 05:55:49;;;;;;;19.10;1.70;;;8.30;99.90;;;;;;5031476;28;20174;-59
2022/12/29 05:58:16;;;;;;;24.73;2.37;;;8.40;99.90;;;;;;5030640;28;20563;-59
2022/12/29 06:00:43;;;;;;;22.37;2.30;;;8.30;99.90;;;;;;5028167;28;20730;-61
2022/12/29 06:03:09;;;;;;;23.73;2.33;;;8.40;99.90;;;;;;5015832;28;20287;-60
2022/12/29 06:05:35;;;;;;;22.73;2.67;;;8.30;99.90;;;;;;5030279;28;20178;-60
2022/12/29 06:08:00;;;;;;;14.47;2.37;;;8.30;99.90;;;;;;5030378;28;20201;-60
2022/12/29 06:10:26;;;;;;;16.43;2.23;;;8.20;99.90;;;;;;5029751;28;20185;-60
2022/12/29 06:12:51;;;;;;;22.80;2.83;;;8.40;99.90;;;;;;5029874;28;20174;-59
2022/12/29 06:15:17;;;;;;;22.07;3.00;;;8.30;99.90;;;;;;5030946;28;20185;-60
2022/12/29 06:17:43;;;;;;;26.67;2.83;;;8.30;99.90;;;;;;5012356;28;20632;-60
2022/12/29 06:20:10;;;;;;;24.23;2.77;;;8.40;99.90;;;;;;5021376;28;20181;-59
2022/12/29 06:22:36;;;;;;;23.40;2.07;;;8.40;99.90;;;;;;5030946;28;20691;-57
2022/12/29 06:25:02;;;;;;;15.83;1.73;;;8.50;99.90;;;;;;5031029;28;20239;-60
2022/12/29 06:27:28;;;;;;;21.70;2.10;;;8.60;99.90;;;;;;5031247;28;20170;-59
2022/12/29 06:29:53;;;;;;;23.80;2.20;;;8.70;99.90;;;;;;5030521;28;20182;-60
2022/12/29 06:32:19;;;;;;;18.50;2.43;;;8.70;99.90;;;;;;5031121;28;20505;-59
2022/12/29 06:34:45;;;;;;;16.90;2.10;;;8.70;99.90;;;;;;5029655;28;20200;-59
2022/12/29 06:37:11;;;;;;;10.27;2.00;;;8.70;99.90;;;;;;5030906;28;20174;-59
2022/12/29 06:39:37;;;;;;;18.63;2.20;;;8.80;99.90;;;;;;5029469;28;20190;-60
2022/12/29 06:42:02;;;;;;;16.93;1.87;;;8.90;99.90;;;;;;5030035;28;20182;-60
2022/12/29 06:44:28;;;;;;;26.30;1.90;;;8.90;99.90;;;;;;5030647;28;20505;-60
2022/12/29 06:46:54;;;;;;;24.40;2.13;;;8.90;99.90;;;;;;5029479;28;20640;-60
2022/12/29 06:49:19;;;;;;;9.30;1.40;;;8.90;99.90;;;;;;5030682;28;20174;-60
2022/12/29 06:51:45;;;;;;;17.63;2.20;;;8.90;99.90;;;;;;5030925;28;20587;-60
2022/12/29 06:54:11;;;;;;;15.70;1.93;;;8.90;99.90;;;;;;5028326;28;20552;-60
2022/12/29 06:56:36;;;;;;;15.80;1.90;;;8.90;99.90;;;;;;5025446;28;20178;-60
2022/12/29 06:59:03;;;;;;;17.10;2.27;;;8.80;99.90;;;;;;5033480;28;20919;-60
2022/12/29 07:01:28;;;;;;;21.57;1.90;;;8.70;99.90;;;;;;5036665;28;20194;-60
2022/12/29 07:03:54;;;;;;;13.63;1.97;;;8.70;99.90;;;;;;5036464;28;20567;-60
2022/12/29 07:06:20;;;;;;;17.17;1.83;;;8.50;99.90;;;;;;5036761;28;20637;-60
2022/12/29 07:08:46;;;;;;;12.17;1.20;;;8.60;99.90;;;;;;5037104;28;20204;-60
2022/12/29 07:11:12;;;;;;;8.83;1.43;;;8.40;99.90;;;;;;5037140;28;20640;-60
2022/12/29 07:13:38;;;;;;;11.30;1.73;;;8.30;99.90;;;;;;5030167;28;20214;-60
2022/12/29 07:16:07;;;;;;;14.47;1.43;;;8.20;99.90;;;;;;5037222;28;20173;-60
2022/12/29 07:18:33;;;;;;;21.67;2.03;;;8.20;99.90;;;;;;5029860;28;20194;-60
2022/12/29 07:20:59;;;;;;;13.97;1.53;;;8.10;99.90;;;;;;5036644;28;20180;-60
2022/12/29 07:23:24;;;;;;;22.53;1.90;;;8.10;99.90;;;;;;5036645;28;20217;-60
2022/12/29 07:25:58;;;;;;;12.80;1.43;;;8.00;99.90;;;;;;5036815;28;20173;-60
2022/12/29 07:28:23;;;;;;;11.13;1.43;;;8.00;99.90;;;;;;5037012;28;20181;-60
2022/12/29 07:30:49;;;;;;;18.20;1.60;;;8.00;99.90;;;;;;5037126;28;20648;-60
2022/12/29 07:33:14;;;;;;;9.63;1.23;;;8.00;99.90;;;;;;5037471;28;20659;-60
2022/12/29 07:35:40;;;;;;;21.60;2.37;;;8.00;99.90;;;;;;5037026;28;20640;-60
2022/12/29 07:38:06;;;;;;;17.20;2.40;;;8.00;99.90;;;;;;5033071;28;20190;-60
2022/12/29 07:40:31;;;;;;;19.43;1.80;;;7.90;99.90;;;;;;5024831;28;20656;-60
2022/12/29 07:42:57;;;;;;;21.13;2.43;;;8.00;99.90;;;;;;5034616;28;20213;-60
2022/12/29 07:45:22;;;;;;;21.00;2.40;;;8.00;99.90;;;;;;5036862;28;20720;-60
2022/12/29 07:47:51;;;;;;;18.93;2.23;;;7.90;99.90;;;;;;5037029;28;20170;-60
2022/12/29 07:50:17;;;;;;;17.30;2.10;;;7.90;99.90;;;;;;5025073;28;20237;-60
2022/12/29 07:52:43;;;;;;;13.67;1.53;;;7.90;99.90;;;;;;5028518;28;20185;-60
2022/12/29 07:55:09;;;;;;;14.60;1.83;;;7.90;99.90;;;;;;5029018;28;20194;-60
2022/12/29 07:57:34;;;;;;;10.77;1.87;;;7.80;99.90;;;;;;5034433;28;20557;-59
2022/12/29 08:00:00;;;;;;;21.83;2.87;;;7.90;99.90;;;;;;5035131;28;20203;-59
2022/12/29 08:02:29;;;;;;;12.23;1.27;;;7.90;99.90;;;;;;5036233;28;20229;-60
2022/12/29 08:04:55;;;;;;;14.33;1.43;;;7.90;99.90;;;;;;5028247;28;20190;-61
2022/12/29 08:07:20;;;;;;;15.10;1.90;;;7.90;99.90;;;;;;5029715;28;20626;-61
2022/12/29 08:09:46;;;;;;;10.63;1.10;;;7.90;99.90;;;;;;5034510;28;20551;-61
2022/12/29 08:12:12;;;;;;;13.00;1.57;;;7.90;99.90;;;;;;5032833;28;20694;-61
2022/12/29 08:14:37;;;;;;;9.90;1.60;;;7.90;99.90;;;;;;5025170;28;20190;-61
2022/12/29 08:17:03;;;;;;;15.37;1.47;;;7.90;99.90;;;;;;5033394;28;20166;-61
2022/12/29 08:19:28;;;;;;;16.10;1.87;;;7.90;99.90;;;;;;5032189;28;20177;-61
2022/12/29 08:21:54;;;;;;;16.03;1.93;;;7.90;99.90;;;;;;5033566;28;20189;-62
2022/12/29 08:24:20;;;;;;;19.10;1.90;;;7.90;99.90;;;;;;5019050;28;20218;-61
2022/12/29 08:26:45;;;;;;;13.67;1.30;;;7.90;99.90;;;;;;5032696;28;20586;-61
2022/12/29 08:29:11;;;;;;;15.33;1.83;;;7.80;99.90;;;;;;5033084;28;20211;-61
2022/12/29 08:31:37;;;;;;;9.93;1.47;;;7.50;99.90;;;;;;5033307;28;20253;-61
2022/12/29 08:34:03;;;;;;;18.17;1.73;;;7.80;99.90;;;;;;5033294;28;20205;-62
2022/12/29 08:36:30;;;;;;;22.80;2.03;;;7.80;99.90;;;;;;5033373;28;20193;-62
2022/12/29 08:38:56;;;;;;;10.87;1.53;;;7.70;99.90;;;;;;5033057;28;20182;-62
2022/12/29 08:41:22;;;;;;;16.37;2.63;;;7.70;99.90;;;;;;5032835;28;20240;-62
2022/12/29 08:43:49;;;;;;;18.30;2.13;;;7.70;99.90;;;;;;5032894;28;20202;-61
2022/12/29 08:46:15;;;;;;;20.83;2.40;;;7.90;99.90;;;;;;5032223;28;20682;-59
2022/12/29 08:48:41;;;;;;;23.27;2.43;;;7.80;99.90;;;;;;5023282;28;20297;-60
2022/12/29 08:51:07;;;;;;;27.90;3.30;;;7.90;99.90;;;;;;5019835;28;20209;-59
2022/12/29 08:53:33;;;;;;;13.33;1.37;;;7.80;99.90;;;;;;5005519;28;20209;-60
2022/12/29 08:56:00;;;;;;;9.50;1.40;;;7.70;99.90;;;;;;5030542;28;20174;-60
2022/12/29 08:58:26;;;;;;;17.50;1.87;;;7.70;99.90;;;;;;5032126;28;20193;-61
2022/12/29 09:00:56;;;;;;;14.80;1.77;;;7.60;99.90;;;;;;5029062;28;20201;-62
2022/12/29 09:03:23;;;;;;;18.80;2.10;;;7.70;99.90;;;;;;5032524;28;20696;-61
2022/12/29 09:05:50;;;;;;;21.07;2.10;;;7.70;99.90;;;;;;5032701;28;20185;-61
2022/12/29 09:08:16;;;;;;;30.13;2.57;;;7.80;99.90;;;;;;5032572;28;20178;-61
2022/12/29 09:10:43;;;;;;;18.23;2.30;;;7.60;99.90;;;;;;5032727;28;20606;-61
2022/12/29 09:13:09;;;;;;;26.67;2.00;;;7.60;99.90;;;;;;5032369;28;20644;-61
2022/12/29 09:15:34;;;;;;;10.63;1.40;;;7.60;99.90;;;;;;5032088;28;20185;-62
2022/12/29 09:18:00;;;;;;;16.90;1.93;;;7.60;99.90;;;;;;5020202;28;20233;-59
2022/12/29 09:20:25;;;;;;;21.53;2.13;;;7.50;99.90;;;;;;5032397;28;20189;-59
2022/12/29 09:22:51;;;;;;;17.43;2.10;;;7.50;99.90;;;;;;5022904;28;20746;-59
2022/12/29 09:25:17;;;;;;;15.00;1.70;;;7.50;99.90;;;;;;5031598;28;20265;-61
2022/12/29 09:27:42;;;;;;;16.27;2.87;;;7.50;99.90;;;;;;5031377;28;20307;-62
2022/12/29 09:30:11;;;;;;;17.90;2.53;;;7.50;99.90;;;;;;5031222;28;20644;-62
2022/12/29 09:32:37;;;;;;;17.20;2.03;;;7.50;99.90;;;;;;5029117;28;20273;-61
2022/12/29 09:35:04;;;;;;;14.37;1.57;;;7.60;99.90;;;;;;5030803;28;20228;-62
2022/12/29 09:37:29;;;;;;;15.10;1.63;;;7.60;99.90;;;;;;5032203;28;20695;-62
2022/12/29 09:39:55;;;;;;;17.93;1.63;;;7.70;99.90;;;;;;5031840;28;20177;-62
2022/12/29 09:42:40;;;;;;;17.73;2.10;;;7.80;99.90;;;;;;5031941;28;20640;-62
2022/12/29 09:45:22;;;;;;;11.53;1.47;;;7.80;99.90;;;;;;5031971;28;20221;-61
2022/12/29 09:47:51;;;;;;;24.93;2.13;;;7.70;99.90;;;;;;5030358;28;20174;-62
2022/12/29 09:50:28;;;;;;;21.93;2.00;;;7.80;99.90;;;;;;5028555;28;20177;-60
2022/12/29 09:53:04;;;;;;;15.47;2.03;;;7.90;99.90;;;;;;5029125;28;20192;-57
2022/12/29 09:55:46;;;;;;;14.33;1.80;;;7.80;99.90;;;;;;5015588;28;20565;-60
2022/12/29 09:58:21;;;;;;;17.33;2.03;;;7.80;99.90;;;;;;5016732;28;20181;-59
2022/12/29 10:01:07;;;;;;;18.00;2.23;;;7.80;99.90;;;;;;5020887;28;20214;-59
2022/12/29 10:03:46;;;;;;;9.07;1.70;;;7.80;99.90;;;;;;5011832;28;20226;-59
2022/12/29 10:06:19;;;;;;;7.60;1.33;;;7.80;99.90;;;;;;5031463;28;20200;-59
2022/12/29 10:09:22;;;;;;;14.07;1.60;;;7.80;99.90;;;;;;5030138;28;20173;-60
2022/12/29 10:11:57;;;;;;;18.13;2.10;;;7.80;99.90;;;;;;5022518;28;20192;-60
2022/12/29 10:14:50;;;;;;;10.60;1.67;;;7.90;99.90;;;;;;5031601;28;20174;-59
2022/12/29 10:17:19;;;;;;;5.97;1.10;;;8.10;99.90;;;;;;5030933;28;20166;-60
2022/12/29 10:20:06;;;;;;;8.07;1.10;;;8.20;99.90;;;;;;5031422;28;20230;-59
2022/12/29 10:22:59;;;;;;;10.67;1.43;;;8.40;99.90;;;;;;5031283;28;20599;-60
2022/12/29 10:25:32;;;;;;;12.00;1.50;;;8.50;99.90;;;;;;5030560;28;20169;-59
2022/12/29 10:28:01;;;;;;;7.60;1.37;;;8.30;99.90;;;;;;5031256;28;20644;-59
2022/12/29 10:30:28;;;;;;;13.50;1.67;;;8.20;99.90;;;;;;5031184;28;20183;-59
2022/12/29 10:33:01;;;;;;;11.77;1.37;;;8.20;99.90;;;;;;5029629;28;20272;-57
2022/12/29 10:35:33;;;;;;;8.60;1.63;;;8.10;99.90;;;;;;5030670;28;20228;-58
2022/12/29 10:38:11;;;;;;;14.80;1.70;;;8.20;99.90;;;;;;5030962;28;20186;-59
2022/12/29 10:40:49;;;;;;;15.37;1.90;;;8.30;99.90;;;;;;5031115;28;20254;-59
2022/12/29 10:43:26;;;;;;;16.37;1.60;;;8.40;99.90;;;;;;5023014;28;20267;-58
2022/12/29 10:45:55;;;;;;;15.23;2.43;;;8.60;99.90;;;;;;5031053;28;20173;-58
2022/12/29 10:48:25;;;;;;;22.87;2.20;;;8.80;99.90;;;;;;5030989;28;20162;-59
2022/12/29 10:50:56;;;;;;;27.27;2.80;;;8.90;99.90;;;;;;5031179;28;20180;-59
2022/12/29 10:53:31;;;;;;;14.67;1.70;;;8.70;99.90;;;;;;5030459;28;20262;-57
2022/12/29 10:55:59;;;;;;;18.67;2.47;;;8.60;99.90;;;;;;5030548;28;20213;-56
2022/12/29 10:58:25;;;;;;;15.03;1.37;;;8.50;99.90;;;;;;5030800;28;20189;-59
2022/12/29 11:00:54;;;;;;;21.73;2.70;;;8.50;99.90;;;;;;5030764;28;20174;-59
2022/12/29 11:03:54;;;;;;;26.77;3.13;;;8.30;99.90;;;;;;5030333;28;20225;-59
2022/12/29 11:06:29;;;;;;;12.00;2.23;;;8.40;99.90;;;;;;5011045;28;20182;-58
2022/12/29 11:09:08;;;;;;;19.03;2.57;;;8.50;99.90;;;;;;5023478;28;20181;-61
2022/12/29 11:11:35;;;;;;;9.90;1.77;;;8.70;99.90;;;;;;5030729;28;20173;-61
2022/12/29 11:14:13;;;;;;;24.33;2.00;;;8.50;99.90;;;;;;5030393;28;20704;-66
2022/12/29 11:16:39;;;;;;;13.77;2.23;;;8.60;99.90;;;;;;5030776;28;20172;-63
2022/12/29 11:19:05;;;;;;;13.87;1.93;;;8.80;99.90;;;;;;5030715;28;20547;-62
2022/12/29 11:21:30;;;;;;;11.33;1.93;;;8.60;99.90;;;;;;5030669;28;20181;-62
2022/12/29 11:24:05;;;;;;;8.63;1.20;;;8.70;99.90;;;;;;5029253;28;20304;-62
2022/12/29 11:26:32;;;;;;;11.63;1.50;;;8.70;99.90;;;;;;5030286;28;20173;-62
2022/12/29 11:29:16;;;;;;;19.43;1.83;;;9.00;99.90;;;;;;5030700;28;20569;-62
2022/12/29 11:31:41;;;;;;;15.43;2.03;;;9.60;99.90;;;;;;5030585;28;20185;-63
2022/12/29 11:34:07;;;;;;;11.93;2.20;;;7.80;99.90;;;;;;5030489;28;20170;-64
2022/12/29 11:36:34;;;;;;;16.00;2.50;;;10.30;99.90;;;;;;5030583;28;20174;-62
2022/12/29 11:39:01;;;;;;;16.27;2.10;;;10.50;99.90;;;;;;5029648;28;20173;-62
2022/12/29 11:41:29;;;;;;;19.30;2.20;;;10.80;99.90;;;;;;5027486;28;20224;-62
2022/12/29 11:44:05;;;;;;;9.63;1.97;;;10.70;99.90;;;;;;5028105;28;20286;-62
2022/12/29 11:46:37;;;;;;;12.93;1.70;;;10.30;99.90;;;;;;5032068;28;20297;-62
2022/12/29 11:49:04;;;;;;;8.97;1.70;;;10.50;99.90;;;;;;5034132;28;20174;-62
2022/12/29 11:51:47;;;;;;;12.57;1.90;;;11.70;99.90;;;;;;5034058;28;20174;-62
2022/12/29 11:54:29;;;;;;;12.03;2.20;;;11.80;99.90;;;;;;5033465;28;20253;-62
2022/12/29 11:56:55;;;;;;;22.53;1.83;;;10.70;99.90;;;;;;5034026;28;20186;-62
2022/12/29 11:59:26;;;;;;;18.20;2.00;;;10.00;99.90;;;;;;5033592;28;20185;-57
2022/12/29 12:01:53;;;;;;;8.07;1.57;;;9.50;99.90;;;;;;5033735;28;20744;-58
2022/12/29 12:04:24;;;;;;;10.07;1.43;;;10.70;99.90;;;;;;5033959;28;20244;-58
2022/12/29 12:07:12;;;;;;;10.43;1.37;;;10.60;99.90;;;;;;5033449;28;20174;-58
2022/12/29 12:09:50;;;;;;;7.93;1.43;;;11.10;99.90;;;;;;5033144;28;20181;-62
2022/12/29 12:12:29;;;;;;;11.10;1.47;;;12.80;99.90;;;;;;5033229;28;20720;-62
2022/12/29 12:14:59;;;;;;;9.67;1.70;;;11.40;99.90;;;;;;5032074;28;20273;-62
2022/12/29 12:17:49;;;;;;;22.90;1.93;;;10.80;99.90;;;;;;5032189;28;20252;-62
2022/12/29 12:20:23;;;;;;;15.80;2.17;;;10.60;99.90;;;;;;5015190;28;20175;-61
2022/12/29 12:23:14;;;;;;;13.00;1.80;;;8.10;99.90;;;;;;5028952;28;20556;-62
2022/12/29 12:26:11;;;;;;;8.23;1.50;;;9.40;99.90;;;;;;5031799;28;20782;-61
2022/12/29 12:28:45;;;;;;;11.70;1.73;;;12.20;99.90;;;;;;5032922;28;20198;-61
2022/12/29 12:31:51;;;;;;;6.83;1.10;;;12.20;99.90;;;;;;5033201;28;20192;-62
2022/12/29 12:34:39;;;;;;;7.57;1.00;;;15.30;99.90;;;;;;5025121;28;20216;-62
2022/12/29 12:37:22;;;;;;;7.53;1.07;;;15.50;99.90;;;;;;5039757;28;20185;-60
2022/12/29 12:40:14;;;;;;;10.80;1.73;;;16.50;99.90;;;;;;5030539;28;20223;-60
2022/12/29 12:42:54;;;;;;;10.67;1.00;;;16.70;99.90;;;;;;5032352;28;20205;-61
2022/12/29 12:45:57;;;;;;;10.83;1.70;;;16.70;99.90;;;;;;5032562;28;20189;-61
2022/12/29 12:49:05;;;;;;;5.87;0.87;;;17.10;99.90;;;;;;5033022;28;20236;-62
2022/12/29 12:51:39;;;;;;;10.97;1.10;;;15.10;99.90;;;;;;5032763;28;20256;-61
2022/12/29 12:54:17;;;;;;;12.00;1.60;;;16.10;99.90;;;;;;5032820;28;20344;-61
2022/12/29 12:57:03;;;;;;;8.13;1.63;;;15.00;99.90;;;;;;5032206;28;20193;-61
2022/12/29 12:59:44;;;;;;;10.43;1.73;;;12.70;99.90;;;;;;5031431;28;20185;-61
2022/12/29 13:02:24;;;;;;;10.13;1.90;;;11.20;99.90;;;;;;5032846;28;20268;-62
2022/12/29 13:04:59;;;;;;;18.03;2.20;;;10.40;99.90;;;;;;5032910;28;20190;-62
2022/12/29 13:07:50;;;;;;;10.60;1.63;;;9.80;99.90;;;;;;5032569;28;20177;-62
2022/12/29 13:10:36;;;;;;;14.80;1.40;;;9.50;99.90;;;;;;5032619;28;20202;-62
2022/12/29 13:13:44;;;;;;;11.37;1.77;;;9.30;99.90;;;;;;5032593;28;20588;-63
2022/12/29 13:16:27;;;;;;;6.30;1.03;;;9.00;99.90;;;;;;5029428;28;20185;-61
2022/12/29 13:19:19;;;;;;;7.53;0.80;;;8.80;99.90;;;;;;5032509;28;20422;-62
2022/12/29 13:22:08;;;;;;;8.70;1.00;;;8.60;99.90;;;;;;5032109;28;20185;-64
2022/12/29 13:24:51;;;;;;;3.70;1.00;;;8.60;99.90;;;;;;5030868;28;20220;-62
2022/12/29 13:27:35;;;;;;;5.37;1.00;;;8.60;99.90;;;;;;5029699;28;20269;-62
2022/12/29 13:30:17;;;;;;;10.93;1.07;;;9.00;99.90;;;;;;5014102;28;20205;-62
2022/12/29 13:32:43;;;;;;;8.93;0.97;;;9.40;99.90;;;;;;5032268;28;20312;-62
2022/12/29 13:35:30;;;;;;;10.47;1.30;;;9.20;99.90;;;;;;5032272;28;20680;-62
2022/12/29 13:38:22;;;;;;;7.10;0.90;;;9.40;99.90;;;;;;5032198;28;20248;-62
2022/12/29 13:40:55;;;;;;;12.60;1.80;;;9.40;99.90;;;;;;5011924;28;20186;-59
2022/12/29 13:43:23;;;;;;;10.93;1.70;;;10.30;99.90;;;;;;5029859;28;20224;-59
2022/12/29 13:46:28;;;;;;;8.33;1.30;;;10.70;99.90;;;;;;5030318;28;20170;-57